Flight Track Log - Related Links

Times and Time Zones

All times are in EDT time to prevent confusion due to time zone crossing. See the OPT429 flight status page for this flight to view local times or setup timezone preferences in your user account.

Time Position Orientation Groundspeed Altitude Reporting Facility
EDT Latitude Longitude Course Direction KTS MPH feet Rate Location/Type
Fri 08:28:04 PM 40.2650 -111.7683 330° Northwest 201 231 7,000  Level Salt Lake Center
Fri 08:29:12 PM 40.3333 -111.8244 328° Northwest 267 307 9,000 1,246 Climbing Salt Lake Center
Fri 08:30:14 PM 40.3781 -111.8972 309° West 271 312 9,700 1,887 Climbing Salt Lake Center
Fri 08:31:16 PM 40.4217 -111.9744 307° West 261 300 12,900 1,597 Climbing Salt Lake Center
Fri 08:32:18 PM 40.4767 -112.0703 307° West 347 399 13,000 1,306 Climbing Salt Lake Center
Fri 08:33:20 PM 40.5294 -112.1775 303° West 345 397 15,600 3,048 Climbing Salt Lake Center
Fri 08:34:22 PM 40.5736 -112.2719 302° West 308 354 19,300 2,952 Climbing Salt Lake Center
Fri 08:35:24 PM 40.6214 -112.3692 303° West 315 362 21,700 2,390 Climbing Salt Lake Center
Fri 08:36:25 PM 40.6439 -112.5061 282° West 323 372 24,200 2,000 Climbing Salt Lake Center
Fri 08:37:27 PM 40.6444 -112.6294 270° West 335 386 25,800 1,742 Climbing Salt Lake Center
Fri 08:38:29 PM 40.6453 -112.7553 271° West 343 395 27,800 1,887 Climbing Salt Lake Center
Fri 08:39:31 PM 40.6450 -112.8808 270° West 341 392 29,700 2,032 Climbing Salt Lake Center
Fri 08:40:33 PM 40.6447 -113.0072 270° West 345 397 32,000 2,177 Climbing Salt Lake Center
Fri 08:41:35 PM 40.6431 -113.1267 269° West 330 380 34,200 2,032 Climbing Salt Lake Center
Fri 08:42:37 PM 40.6419 -113.2428 269° West 318 366 36,200 1,805 Climbing Salt Lake Center
Fri 08:43:38 PM 40.6236 -113.3769 260° West 313 360 37,900 1,171 Climbing Salt Lake Center
Fri 08:44:40 PM 40.6069 -113.4889 259° West 312 359 38,600 774 Climbing Salt Lake Center
Fri 08:45:42 PM 40.5903 -113.6056 259° West 323 372 39,500 871 Climbing Salt Lake Center
Fri 08:46:44 PM 40.5714 -113.7225 258° West 328 377 40,400 919 Climbing Salt Lake Center
Fri 08:47:46 PM 40.5544 -113.8400 259° West 328 377 41,400 823 Climbing Salt Lake Center
Fri 08:48:48 PM 40.5383 -113.9542 260° West 322 371 42,100 634 Climbing Salt Lake Center
Fri 08:49:49 PM 40.5172 -114.0903 259° West 318 366 42,700 439 Climbing Salt Lake Center
Fri 08:50:51 PM 40.5017 -114.1992 259° West 309 356 43,000 145 Climbing Salt Lake Center
Fri 08:51:53 PM 40.4842 -114.3142 259° West 318 366 43,000  Level Salt Lake Center
Fri 08:52:55 PM 40.4650 -114.4331 258° West 328 377 43,000  Level Salt Lake Center
Fri 08:53:57 PM 40.4464 -114.5533 259° West 332 382 43,000  Level Salt Lake Center
Fri 08:54:59 PM 40.4269 -114.6792 259° West 345 397 43,000  Level Salt Lake Center
Fri 08:56:00 PM 40.4050 -114.8217 259° West 351 404 43,000  Level Salt Lake Center
Fri 08:57:02 PM 40.3853 -114.9464 258° West 360 414 43,000  Level Salt Lake Center
Fri 08:58:04 PM 40.3625 -115.0883 258° West 359 413 43,000  Level Salt Lake Center
Fri 08:59:06 PM 40.3433 -115.2106 258° West 356 410 43,000  Level Salt Lake Center
Fri 09:00:07 PM 40.3197 -115.3550 258° West 358 412 43,000  Level Salt Lake Center
Fri 09:01:09 PM 40.2983 -115.4808 257° West 365 420 43,000  Level Salt Lake Center
Fri 09:02:11 PM 40.2789 -115.6058 259° West 365 420 43,000  Level Salt Lake Center
Fri 09:03:12 PM 40.2542 -115.7519 258° West 366 421 43,000  Level Salt Lake Center
Fri 09:04:15 PM 40.2311 -115.8800 257° West 371 427 43,000  Level Salt Lake Center
Fri 09:05:16 PM 40.2069 -116.0231 258° West 364 419 43,000  Level Salt Lake Center
Fri 09:06:18 PM 40.1867 -116.1453 258° West 363 418 43,000  Level Salt Lake Center
Fri 09:07:19 PM 40.1664 -116.2675 258° West 359 413 43,000  Level Salt Lake Center
Fri 09:08:21 PM 40.1414 -116.4053 257° West 352 405 43,000  Level Salt Lake Center
Fri 09:09:23 PM 40.1211 -116.5261 258° West 352 405 43,000  Level Salt Lake Center
Fri 09:10:24 PM 40.0964 -116.6661 257° West 352 405 43,000  Level Salt Lake Center
Fri 09:11:26 PM 40.0750 -116.7911 257° West 359 413 43,000  Level Salt Lake Center
Fri 09:12:28 PM 40.0522 -116.9172 257° West 366 421 43,000  Level Salt Lake Center
Fri 09:13:29 PM 40.0261 -117.0628 257° West 367 422 43,000  Level Salt Lake Center
Fri 09:14:31 PM 40.0039 -117.1861 257° West 366 421 43,000  Level Salt Lake Center
Fri 09:15:32 PM 39.9786 -117.3283 257° West 364 419 43,000  Level Salt Lake Center
Fri 09:16:34 PM 39.9564 -117.4486 256° West 360 414 43,000  Level Salt Lake Center
Fri 09:17:36 PM 39.9339 -117.5731 257° West 362 417 43,000  Level Salt Lake Center
Fri 09:18:39 PM 39.9086 -117.7097 256° West 366 421 43,000  Level Oakland Center
Fri 09:19:40 PM 39.8858 -117.8375 257° West 365 420 43,000 -976 Level Oakland Center
Fri 09:20:42 PM 39.8567 -117.9953 257° West 373 429 41,000 -1,902 Descending Oakland Center
Fri 09:21:43 PM 39.8322 -118.1278 257° West 375 432 39,100 -1,951 Descending Oakland Center
Fri 09:22:45 PM 39.8086 -118.2556 257° West 368 423 37,000 -2,098 Descending Oakland Center
Fri 09:23:46 PM 39.7858 -118.3722 256° West 344 396 34,800 -2,293 Descending Oakland Center
Fri 09:24:48 PM 39.7617 -118.4947 256° West 346 398 32,300 -2,488 Descending Oakland Center
Fri 09:25:49 PM 39.7389 -118.6108 256° West 341 392 29,700 -2,488 Descending Oakland Center
Fri 09:26:51 PM 39.7150 -118.7336 256° West 351 404 27,200 -2,732 Descending Oakland Center
Fri 09:27:52 PM 39.6844 -118.8889 256° West 379 436 24,100 -2,732 Descending Oakland Center
Fri 09:28:54 PM 39.6569 -119.0278 256° West 399 459 21,600 -2,000 Descending Oakland Center
Fri 09:29:55 PM 39.6303 -119.1606 255° West 388 447 20,000 -780 Descending Oakland Center
Fri 09:30:57 PM 39.6042 -119.2892 255° West 376 433 20,000  Level Oakland Center
Fri 09:31:58 PM 39.5792 -119.4122 255° West 359 413 20,000 -585 Level Oakland Center
Fri 09:33:00 PM 39.5544 -119.5331 255° West 351 404 18,800 -2,029 Descending Oakland Center
Fri 09:34:14 PM 39.5000 -119.7000 247° West 355 409 15,400 -2,552 Descending Northern Cal TRACON
Fri 09:35:14 PM 39.4333 -119.8000 229° Southwest 412 474 13,100 -1,700 Descending Northern Cal TRACON
Fri 09:36:14 PM 39.3833 -119.8833 232° Southwest 305 351 12,000 -933 Descending Northern Cal TRACON
Fri 09:38:14 PM 39.3167 -119.9833 229° Southwest 226 260 10,300 -850 Descending Northern Cal TRACON

Login

Don't have an account? Register now (free) for customized features, flight alerts, and more!